Time;durP1;ratioP1;P1;durP2;ratioP2;P2;SDS_P1;SDS_P2;PMS_P1;PMS_P2;Temp;Humidity;BMP_temperature;BMP_pressure;BME280_temperature;BME280_humidity;BME280_pressure;Samples;Min_cycle;Max_cycle;Signal;HPM_P1;HPM_P2
2021/08/15 00:02:31;;;;;;;15.77;9.33;;;;;;;19.94;76.67;96795.78;2594834;54;21071;-76
2021/08/15 00:05:03;;;;;;;17.90;9.20;;;;;;;19.91;76.27;96798.75;2594380;36;20426;-75
2021/08/15 00:07:33;;;;;;;15.33;9.70;;;;;;;19.51;78.22;96794.84;2594356;54;20426;-76
2021/08/15 00:10:03;;;;;;;17.80;8.43;;;;;;;19.15;78.38;96787.00;2594313;36;20429;-76
2021/08/15 00:12:33;;;;;;;16.93;8.87;;;;;;;19.30;78.23;96783.75;2594887;54;20419;-75
2021/08/15 00:15:03;;;;;;;15.63;9.10;;;;;;;19.59;77.62;96786.09;2595391;31;20862;-75
2021/08/15 00:17:35;;;;;;;19.90;9.63;;;;;;;19.71;76.89;96781.34;2593882;39;20832;-75
2021/08/15 00:20:06;;;;;;;16.07;9.87;;;;;;;19.68;77.26;96766.56;2593483;36;20439;-75
2021/08/15 00:22:39;;;;;;;18.40;10.00;;;;;;;19.73;76.68;96774.91;2593974;54;20414;-78
2021/08/15 00:25:11;;;;;;;13.90;9.57;;;;;;;19.52;77.83;96777.94;2594105;36;20435;-76
2021/08/15 00:27:41;;;;;;;14.40;9.30;;;;;;;19.54;77.33;96770.66;2594674;31;20825;-75
2021/08/15 00:30:14;;;;;;;20.40;9.33;;;;;;;19.50;77.45;96773.75;2594141;36;20418;-76
2021/08/15 00:32:48;;;;;;;18.00;8.40;;;;;;;19.42;77.50;96766.56;2594136;54;20418;-76
2021/08/15 00:35:18;;;;;;;19.30;9.77;;;;;;;19.36;77.51;96761.91;2593796;36;20553;-74
2021/08/15 00:37:48;;;;;;;18.80;9.23;;;;;;;19.42;77.37;96766.56;2595889;54;20423;-75
2021/08/15 00:40:19;;;;;;;15.67;9.50;;;;;;;19.45;77.22;96760.97;2593698;36;20930;-77
2021/08/15 00:42:49;;;;;;;21.67;9.50;;;;;;;19.42;76.79;96763.91;2594544;39;21089;-75
2021/08/15 00:45:18;;;;;;;18.27;9.40;;;;;;;19.34;77.47;96758.56;2594054;36;20929;-76
2021/08/15 00:47:51;;;;;;;15.10;9.13;;;;;;;19.33;77.82;96756.91;2594724;54;20459;-77
2021/08/15 00:50:22;;;;;;;12.40;8.03;;;;;;;19.36;77.43;96756.59;2593597;36;20774;-77
2021/08/15 00:52:52;;;;;;;19.83;8.73;;;;;;;19.30;77.52;96747.41;2594825;54;21262;-76
2021/08/15 00:55:22;;;;;;;10.47;8.37;;;;;;;19.21;77.70;96742.22;2593601;36;20961;-75
2021/08/15 00:57:51;;;;;;;13.33;8.60;;;;;;;19.24;77.89;96749.88;2594856;54;20964;-76
2021/08/15 01:00:22;;;;;;;17.93;9.90;;;;;;;18.66;80.51;96753.88;2595187;31;20858;-74
2021/08/15 01:02:55;;;;;;;14.60;8.97;;;;;;;18.37;80.50;96753.13;2594782;54;20415;-73
2021/08/15 01:05:26;;;;;;;22.47;9.33;;;;;;;18.30;81.56;96749.38;2594293;36;20479;-73
2021/08/15 01:07:56;;;;;;;13.40;8.93;;;;;;;18.40;81.72;96740.53;2594480;39;20760;-74
2021/08/15 01:10:26;;;;;;;16.20;9.23;;;;;;;18.72;80.08;96732.88;2593688;36;21302;-76
2021/08/15 01:12:56;;;;;;;20.30;8.27;;;;;;;18.90;78.21;96734.72;2595365;54;20431;-76
2021/08/15 01:15:27;;;;;;;17.60;9.50;;;;;;;18.88;78.23;96736.69;2597799;36;20749;-76
2021/08/15 01:18:00;;;;;;;14.40;9.63;;;;;;;18.86;78.70;96728.06;2594112;54;20619;-75
2021/08/15 01:20:30;;;;;;;15.60;9.30;;;;;;;18.88;78.77;96728.72;2600446;36;20913;-72
2021/08/15 01:22:59;;;;;;;18.10;10.07;;;;;;;18.86;78.45;96725.41;2595284;39;21179;-75
2021/08/15 01:25:29;;;;;;;17.90;9.67;;;;;;;18.94;79.15;96725.47;2594512;36;20952;-74
2021/08/15 01:27:59;;;;;;;11.13;8.67;;;;;;;18.98;78.42;96720.69;2595233;39;20982;-78
2021/08/15 01:30:31;;;;;;;15.37;9.70;;;;;;;18.98;78.60;96721.50;2595169;36;20449;-73
2021/08/15 01:33:02;;;;;;;12.43;9.60;;;;;;;18.81;79.57;96723.19;2596615;54;21056;-75
2021/08/15 01:35:32;;;;;;;10.20;8.20;;;;;;;18.63;80.14;96717.88;2594972;36;21246;-76
2021/08/15 01:38:02;;;;;;;16.37;9.57;;;;;;;18.81;79.05;96719.72;2593860;54;20411;-77
2021/08/15 01:40:32;;;;;;;13.73;9.10;;;;;;;18.87;78.73;96717.28;2594745;36;20732;-77
2021/08/15 01:43:02;;;;;;;18.80;9.57;;;;;;;18.84;79.08;96716.78;2594628;54;20419;-77
2021/08/15 01:45:35;;;;;;;17.53;9.90;;;;;;;18.74;80.03;96715.00;2593976;36;20403;-78
2021/08/15 01:48:05;;;;;;;18.50;10.03;;;;;;;18.35;80.28;96719.78;2594419;39;20758;-74
2021/08/15 01:50:35;;;;;;;16.53;8.20;;;;;;;18.25;79.41;96725.16;2594617;36;20434;-79
2021/08/15 01:53:09;;;;;;;16.33;8.00;;;;;;;17.99;80.80;96725.03;2594279;54;20435;-76
2021/08/15 01:55:41;;;;;;;14.13;8.97;;;;;;;18.24;79.83;96720.00;2558101;54;2004105;-77
2021/08/15 01:58:11;;;;;;;15.03;9.40;;;;;;;18.47;79.01;96715.09;2594607;36;20438;-75
2021/08/15 02:00:46;;;;;;;16.37;9.30;;;;;;;18.47;79.06;96701.84;2594210;54;20422;-73
2021/08/15 02:03:17;;;;;;;15.63;9.50;;;;;;;18.75;78.22;96711.34;2594341;36;20422;-74
2021/08/15 02:05:47;;;;;;;22.13;9.60;;;;;;;18.65;78.53;96710.59;2593716;47;20407;-75
2021/08/15 02:08:16;;;;;;;14.13;9.50;;;;;;;18.59;79.85;96705.91;2595156;36;20902;-74
2021/08/15 02:10:47;;;;;;;19.13;9.83;;;;;;;18.30;80.69;96722.06;2594420;47;20966;-75
2021/08/15 02:13:17;;;;;;;16.20;10.30;;;;;;;18.15;81.04;96721.72;2594172;36;20773;-76
2021/08/15 02:15:49;;;;;;;13.17;8.73;;;;;;;18.18;80.15;96719.63;2594184;47;20402;-77
2021/08/15 02:18:20;;;;;;;19.53;9.77;;;;;;;17.95;81.17;96708.63;2593591;36;20537;-72
2021/08/15 02:20:50;;;;;;;12.37;8.97;;;;;;;18.06;80.46;96720.00;2593691;54;20431;-74
2021/08/15 02:23:19;;;;;;;13.40;8.70;;;;;;;18.22;79.75;96720.16;2594517;36;20418;-73
2021/08/15 02:25:49;;;;;;;13.57;8.70;;;;;;;18.37;79.38;96723.13;2595396;39;20795;-77
2021/08/15 02:28:19;;;;;;;18.27;9.90;;;;;;;18.32;79.69;96720.91;2595687;36;20800;-77
2021/08/15 02:30:51;;;;;;;23.03;10.80;;;;;;;18.13;80.03;96723.69;2595136;54;20458;-76
2021/08/15 02:33:21;;;;;;;18.87;10.60;;;;;;;18.00;80.56;96715.28;2595487;36;21169;-75
2021/08/15 02:35:53;;;;;;;14.63;9.73;;;;;;;18.11;80.16;96710.63;2597629;47;20450;-75
2021/08/15 02:38:24;;;;;;;14.97;9.63;;;;;;;18.09;79.97;96709.09;2596711;36;21008;-77
2021/08/15 02:40:54;;;;;;;19.20;10.50;;;;;;;18.19;80.14;96715.16;2594778;54;20516;-76
2021/08/15 02:43:24;;;;;;;16.00;9.83;;;;;;;18.17;81.09;96712.66;2594335;31;20478;-75
2021/08/15 02:45:56;;;;;;;22.30;9.67;;;;;;;18.16;80.67;96712.81;2594663;39;20811;-76
2021/08/15 02:48:27;;;;;;;16.57;10.63;;;;;;;18.11;81.24;96718.56;2595326;36;20419;-75
2021/08/15 02:50:57;;;;;;;17.47;9.93;;;;;;;18.17;80.83;96704.72;2596889;54;20442;-74
2021/08/15 02:53:27;;;;;;;15.90;9.50;;;;;;;18.23;81.30;96716.53;2594798;36;20910;-77
2021/08/15 02:55:56;;;;;;;14.30;10.07;;;;;;;18.18;81.32;96708.19;2594297;54;20979;-74
2021/08/15 02:58:26;;;;;;;18.20;9.90;;;;;;;17.68;81.12;96714.75;2594821;31;20458;-75
2021/08/15 03:00:58;;;;;;;12.13;9.63;;;;;;;17.64;81.39;96705.41;2594291;54;20427;-76
2021/08/15 03:03:28;;;;;;;14.70;9.70;;;;;;;17.65;81.83;96700.94;2594408;36;21023;-76
2021/08/15 03:05:58;;;;;;;15.93;9.90;;;;;;;17.86;81.01;96696.28;2594622;54;20463;-76
2021/08/15 03:08:28;;;;;;;12.60;9.37;;;;;;;18.01;80.68;96695.75;2594348;36;20422;-76
2021/08/15 03:10:58;;;;;;;14.77;9.50;;;;;;;18.05;81.17;96697.13;2594377;54;20953;-75
2021/08/15 03:13:28;;;;;;;20.20;10.60;;;;;;;18.12;80.63;96701.66;2594593;31;20846;-74
2021/08/15 03:16:00;;;;;;;17.33;9.50;;;;;;;18.12;80.87;96698.19;2594289;54;20426;-75
2021/08/15 03:18:30;;;;;;;13.17;9.30;;;;;;;18.17;80.32;96696.75;2595105;31;20864;-74
2021/08/15 03:21:00;;;;;;;13.83;10.10;;;;;;;17.78;82.61;96696.16;2594337;54;21263;-75
2021/08/15 03:23:29;;;;;;;13.50;10.10;;;;;;;17.73;82.83;96690.44;2593494;36;20406;-74
2021/08/15 03:25:59;;;;;;;17.23;10.20;;;;;;;17.79;82.26;96703.09;2594453;54;20379;-76
2021/08/15 03:28:29;;;;;;;14.73;9.80;;;;;;;17.76;80.89;96692.81;2594331;36;21099;-75
2021/08/15 03:31:01;;;;;;;18.97;10.73;;;;;;;17.46;82.52;96694.75;2593979;54;20460;-74
2021/08/15 03:33:32;;;;;;;19.70;9.63;;;;;;;17.61;81.66;96692.47;2593913;31;20823;-75
2021/08/15 03:36:01;;;;;;;19.97;9.40;;;;;;;17.61;81.76;96689.81;2594720;54;20910;-76
2021/08/15 03:38:31;;;;;;;15.50;9.63;;;;;;;17.73;81.44;96688.63;2594706;36;21260;-79
2021/08/15 03:41:01;;;;;;;12.90;10.03;;;;;;;17.84;80.84;96685.00;2594566;54;20907;-77
2021/08/15 03:43:31;;;;;;;13.67;8.60;;;;;;;17.77;80.79;96678.56;2593894;36;20427;-77
2021/08/15 03:46:03;;;;;;;13.50;9.13;;;;;;;17.75;80.37;96688.50;2594373;54;20418;-77
2021/08/15 03:48:33;;;;;;;23.57;9.80;;;;;;;17.81;80.23;96684.41;2594275;36;20847;-79
2021/08/15 03:51:03;;;;;;;14.70;10.03;;;;;;;17.67;81.10;96678.63;2593746;39;20794;-75
2021/08/15 03:53:33;;;;;;;14.67;10.27;;;;;;;17.61;81.90;96675.75;2594135;36;20410;-75
2021/08/15 03:56:03;;;;;;;19.40;10.33;;;;;;;17.67;81.58;96670.69;2593961;54;20407;-76
2021/08/15 03:58:32;;;;;;;17.40;10.73;;;;;;;17.68;81.92;96674.16;2593572;36;20798;-78
2021/08/15 04:01:05;;;;;;;15.70;10.17;;;;;;;17.61;82.08;96675.75;2594534;39;20778;-76
2021/08/15 04:03:35;;;;;;;14.90;9.13;;;;;;;17.64;81.07;96664.84;2593930;36;20434;-74
2021/08/15 04:06:09;;;;;;;18.83;10.07;;;;;;;17.61;81.32;96655.41;2593386;54;20910;-75
2021/08/15 04:08:39;;;;;;;19.37;10.57;;;;;;;17.60;81.48;96648.41;2594380;36;20775;-75
2021/08/15 04:11:09;;;;;;;16.33;11.30;;;;;;;17.48;80.91;96645.13;2594247;54;20383;-75
2021/08/15 04:13:38;;;;;;;14.20;9.47;;;;;;;17.53;81.01;96656.13;2593994;36;20419;-75
2021/08/15 04:16:11;;;;;;;19.50;10.00;;;;;;;17.57;81.10;96656.66;2594001;54;20415;-78
2021/08/15 04:18:40;;;;;;;17.07;10.03;;;;;;;17.57;81.60;96662.78;2594227;36;20830;-75
2021/08/15 04:21:10;;;;;;;16.87;11.03;;;;;;;17.63;81.76;96660.56;2593603;47;21044;-76
2021/08/15 04:23:40;;;;;;;17.53;10.67;;;;;;;17.38;83.24;96655.78;2594159;36;20946;-77
2021/08/15 04:26:10;;;;;;;14.83;9.53;;;;;;;17.09;83.76;96652.41;2594108;54;20874;-75
2021/08/15 04:28:40;;;;;;;16.40;7.70;;;;;;;17.18;81.80;96655.03;2593272;36;20843;-77
2021/08/15 04:31:12;;;;;;;14.83;9.60;;;;;;;17.14;81.47;96648.38;2594304;54;20391;-74
2021/08/15 04:33:42;;;;;;;14.67;8.50;;;;;;;17.24;81.88;96652.78;2595380;36;20453;-77
2021/08/15 04:36:12;;;;;;;13.60;9.23;;;;;;;17.26;81.41;96658.78;2595605;54;21384;-78
2021/08/15 04:38:42;;;;;;;14.27;9.10;;;;;;;17.23;81.52;96661.69;2595004;36;20415;-77
2021/08/15 04:41:12;;;;;;;14.57;9.83;;;;;;;16.94;83.09;96667.94;2594289;39;20758;-75
2021/08/15 04:43:42;;;;;;;13.87;8.77;;;;;;;17.12;82.18;96671.50;2595483;36;20442;-76
2021/08/15 04:46:14;;;;;;;16.17;8.50;;;;;;;17.26;81.59;96672.81;2595632;54;20415;-78
2021/08/15 04:48:44;;;;;;;14.53;9.77;;;;;;;17.37;81.27;96666.53;2597510;31;20465;-76
2021/08/15 04:51:14;;;;;;;13.47;8.67;;;;;;;17.23;81.71;96670.50;2596959;39;20749;-76
2021/08/15 04:53:43;;;;;;;14.60;8.93;;;;;;;17.01;80.95;96669.00;2595467;36;21195;-76
2021/08/15 04:56:13;;;;;;;14.23;9.80;;;;;;;16.91;81.51;96668.22;2597177;54;20997;-78
2021/08/15 04:58:43;;;;;;;13.93;9.43;;;;;;;16.98;82.01;96656.09;2594342;36;20910;-78
2021/08/15 05:01:15;;;;;;;13.50;8.63;;;;;;;16.54;83.38;96667.16;2594766;54;20446;-80
2021/08/15 05:03:46;;;;;;;13.20;9.60;;;;;;;17.00;82.62;96665.53;2594407;31;20997;-79
2021/08/15 05:06:16;;;;;;;18.13;10.53;;;;;;;17.43;81.23;96668.59;2594651;54;20886;-77
2021/08/15 05:08:46;;;;;;;17.73;9.63;;;;;;;17.61;80.63;96673.09;2594894;36;20422;-77
2021/08/15 05:11:17;;;;;;;15.37;11.13;;;;;;;17.81;81.12;96669.34;2594873;54;20514;-78
2021/08/15 05:13:47;;;;;;;22.07;10.63;;;;;;;18.06;80.45;96665.19;2595905;36;20450;-76
2021/08/15 05:16:19;;;;;;;13.13;9.20;;;;;;;18.16;80.39;96667.75;2595391;39;20780;-74
2021/08/15 05:18:50;;;;;;;15.03;10.23;;;;;;;18.31;80.20;96663.59;2594863;36;20426;-75
2021/08/15 05:21:20;;;;;;;15.13;9.93;;;;;;;18.37;80.37;96662.97;2594883;54;20427;-74
2021/08/15 05:23:50;;;;;;;18.10;9.73;;;;;;;18.38;80.23;96672.63;2594707;36;20940;-74
2021/08/15 05:26:20;;;;;;;25.90;11.23;;;;;;;18.42;80.46;96674.94;2595293;54;20419;-75
2021/08/15 05:28:50;;;;;;;15.10;9.57;;;;;;;18.30;79.70;96675.16;2596642;36;21071;-74
2021/08/15 05:31:23;;;;;;;13.57;9.97;;;;;;;18.33;78.89;96679.34;2597208;54;20398;-75
2021/08/15 05:33:53;;;;;;;18.53;8.93;;;;;;;18.34;79.29;96676.53;2595838;36;20986;-76
2021/08/15 05:36:24;;;;;;;18.37;11.23;;;;;;;18.52;78.15;96665.06;2595516;54;20458;-74
2021/08/15 05:38:53;;;;;;;20.60;11.20;;;;;;;18.49;79.01;96673.34;2595486;36;20860;-74
2021/08/15 05:41:23;;;;;;;13.30;9.50;;;;;;;18.25;80.75;96684.56;2594489;39;20899;-77
2021/08/15 05:43:53;;;;;;;22.33;12.50;;;;;;;18.18;82.14;96674.56;2596071;36;20462;-74
2021/08/15 05:46:25;;;;;;;18.07;12.07;;;;;;;18.40;82.14;96668.97;2595004;54;20384;-75
2021/08/15 05:48:55;;;;;;;19.43;11.70;;;;;;;18.64;80.33;96676.28;2594901;36;20906;-77
2021/08/15 05:51:25;;;;;;;20.27;10.77;;;;;;;18.36;81.42;96671.91;2594492;39;21125;-76
2021/08/15 05:53:55;;;;;;;15.30;11.03;;;;;;;18.75;80.92;96660.94;2596024;36;20934;-74
2021/08/15 05:56:25;;;;;;;16.40;10.90;;;;;;;19.09;79.45;96659.38;2595755;54;20418;-74
2021/08/15 05:58:55;;;;;;;19.60;11.37;;;;;;;19.42;78.02;96660.38;2596876;31;20423;-74
2021/08/15 06:01:27;;;;;;;17.10;12.07;;;;;;;19.89;75.72;96662.53;2597041;54;20929;-75
2021/08/15 06:03:57;;;;;;;28.33;11.93;;;;;;;20.17;74.83;96654.31;2594603;36;20418;-76
2021/08/15 06:06:27;;;;;;;15.40;11.13;;;;;;;20.22;73.86;96670.59;2596358;39;20785;-73
2021/08/15 06:08:56;;;;;;;18.47;10.90;;;;;;;20.08;74.96;96671.25;2599104;36;20787;-76
2021/08/15 06:11:26;;;;;;;22.93;11.17;;;;;;;20.20;74.90;96656.63;2596546;54;20966;-75
2021/08/15 06:13:57;;;;;;;17.70;10.70;;;;;;;20.23;73.89;96658.13;2599302;31;21349;-75
2021/08/15 06:16:30;;;;;;;21.23;10.30;;;;;;;20.33;73.22;96659.66;2599363;54;20957;-76
2021/08/15 06:18:59;;;;;;;13.53;10.00;;;;;;;20.21;73.17;96654.81;2597368;36;20446;-75
2021/08/15 06:21:29;;;;;;;14.73;10.27;;;;;;;20.46;73.05;96642.34;2597003;54;20395;-75
2021/08/15 06:23:59;;;;;;;13.93;9.40;;;;;;;20.69;71.55;96643.38;2596329;36;21053;-75
2021/08/15 06:26:30;;;;;;;15.87;9.17;;;;;;;21.04;71.44;96637.84;2596874;54;20383;-74
2021/08/15 06:29:00;;;;;;;13.80;9.90;;;;;;;21.03;71.62;96636.16;2595554;36;20426;-75
2021/08/15 06:31:32;;;;;;;16.73;10.40;;;;;;;21.45;70.69;96638.56;2596081;39;20870;-75
2021/08/15 06:34:02;;;;;;;19.47;11.60;;;;;;;21.59;69.34;96625.53;2596097;36;20414;-75
2021/08/15 06:36:32;;;;;;;38.47;20.80;;;;;;;21.86;69.83;96632.22;2595037;54;20387;-75
2021/08/15 06:39:05;;;;;;;21.00;12.83;;;;;;;21.88;69.71;96636.38;2596255;36;20759;-75
2021/08/15 06:41:35;;;;;;;16.70;9.83;;;;;;;21.31;72.22;96637.44;2599260;54;20971;-75
2021/08/15 06:44:05;;;;;;;17.33;10.50;;;;;;;21.71;71.48;96632.94;2597636;36;21228;-74
2021/08/15 06:46:37;;;;;;;14.20;10.53;;;;;;;22.04;69.78;96634.59;2595941;47;21065;-75
2021/08/15 06:49:07;;;;;;;12.70;9.30;;;;;;;22.30;68.70;96621.75;2596211;36;20415;-75
2021/08/15 06:51:37;;;;;;;15.30;9.47;;;;;;;22.38;67.74;96625.38;2600224;54;20418;-75
2021/08/15 06:54:07;;;;;;;20.17;9.60;;;;;;;22.14;69.29;96634.38;2596287;36;20422;-76
2021/08/15 06:56:38;;;;;;;15.13;8.77;;;;;;;22.44;68.36;96619.34;2597253;54;20450;-75
2021/08/15 06:59:08;;;;;;;13.33;9.03;;;;;;;22.71;67.28;96624.09;2598115;36;20921;-75
2021/08/15 07:01:40;;;;;;;15.80;8.90;;;;;;;23.13;66.01;96618.38;2596772;54;20567;-75
2021/08/15 07:04:13;;;;;;;13.50;9.63;;;;;;;23.12;65.52;96617.56;2599815;31;20418;-75
2021/08/15 07:06:48;;;;;;;13.43;9.40;;;;;;;23.01;66.01;96616.16;2608044;46;20423;-75
2021/08/15 07:09:17;;;;;;;12.53;9.20;;;;;;;23.42;64.82;96620.22;2596064;36;20808;-75
2021/08/15 07:11:48;;;;;;;14.03;9.40;;;;;;;23.42;64.60;96609.53;2596442;54;20902;-75
2021/08/15 07:14:18;;;;;;;33.03;20.00;;;;;;;23.99;62.59;96614.16;2596568;31;20764;-75
2021/08/15 07:16:51;;;;;;;22.50;11.53;;;;;;;24.35;61.10;96609.75;2598998;54;20910;-74
2021/08/15 07:19:21;;;;;;;11.37;8.80;;;;;;;24.44;61.42;96606.75;2598102;36;20414;-75
2021/08/15 07:21:50;;;;;;;13.20;8.63;;;;;;;25.19;59.41;96601.75;2597384;54;20426;-75
2021/08/15 07:24:21;;;;;;;12.40;9.30;;;;;;;23.68;62.14;96606.38;2595162;36;20908;-75
2021/08/15 07:26:52;;;;;;;12.33;8.37;;;;;;;24.69;59.56;96610.91;2596157;46;20398;-75
2021/08/15 07:29:26;;;;;;;15.73;9.20;;;;;;;24.87;58.53;96605.88;2595224;36;20981;-75
2021/08/15 07:31:59;;;;;;;19.70;8.50;;;;;;;25.36;57.19;96607.63;2595730;54;20383;-75
2021/08/15 07:34:28;;;;;;;18.03;9.13;;;;;;;25.87;56.75;96608.25;2595485;36;20901;-75
2021/08/15 07:36:58;;;;;;;17.70;9.20;;;;;;;25.51;57.76;96622.78;2595179;54;20454;-75
2021/08/15 07:39:34;;;;;;;10.80;7.33;;;;;;;25.94;56.88;96620.69;2596746;31;20944;-75
2021/08/15 07:42:06;;;;;;;12.07;8.03;;;;;;;27.03;53.61;96622.25;2598298;54;20922;-74
2021/08/15 07:44:37;;;;;;;13.20;8.43;;;;;;;26.94;52.63;96620.81;2616646;36;20742;-73
2021/08/15 07:47:09;;;;;;;27.87;17.13;;;;;;;27.20;52.10;96619.13;2595160;39;21104;-73
2021/08/15 07:49:42;;;;;;;31.97;15.13;;;;;;;27.41;52.96;96615.38;2595423;36;20565;-74
2021/08/15 07:52:12;;;;;;;11.63;7.70;;;;;;;27.42;52.34;96611.63;2597343;54;20459;-74
2021/08/15 07:54:44;;;;;;;11.93;8.10;;;;;;;27.76;52.47;96613.19;2597193;36;20795;-74
2021/08/15 07:57:14;;;;;;;15.33;8.90;;;;;;;27.79;51.42;96618.09;2602872;39;20846;-73
2021/08/15 07:59:44;;;;;;;19.63;8.73;;;;;;;26.67;53.36;96609.25;2612477;36;20453;-73
2021/08/15 08:02:17;;;;;;;12.23;8.57;;;;;;;26.52;53.19;96608.59;2598312;54;20414;-75
2021/08/15 08:04:48;;;;;;;15.43;8.40;;;;;;;26.40;54.68;96616.44;2597713;36;20958;-73
2021/08/15 08:07:19;;;;;;;15.93;8.20;;;;;;;26.43;55.08;96611.50;2596482;39;20598;-75
2021/08/15 08:09:50;;;;;;;15.73;9.10;;;;;;;26.60;55.29;96603.09;2595165;36;20418;-73
2021/08/15 08:12:20;;;;;;;15.97;9.13;;;;;;;26.24;56.92;96609.63;2597076;54;20493;-73
2021/08/15 08:14:51;;;;;;;10.17;8.47;;;;;;;25.17;57.61;96602.97;2596158;36;20625;-75
2021/08/15 08:17:23;;;;;;;16.17;9.20;;;;;;;26.61;54.73;96594.78;2595426;54;20454;-74
2021/08/15 08:19:53;;;;;;;14.17;8.67;;;;;;;26.80;52.67;96595.81;2597120;36;20422;-74
2021/08/15 08:22:23;;;;;;;12.17;8.20;;;;;;;26.98;53.42;96597.88;2597533;47;20989;-74
2021/08/15 08:24:55;;;;;;;12.83;8.90;;;;;;;27.43;56.20;96599.88;2598113;36;20759;-74
2021/08/15 08:27:26;;;;;;;13.67;8.47;;;;;;;28.20;50.74;96587.28;2599012;39;20888;-75
2021/08/15 08:29:56;;;;;;;12.00;7.83;;;;;;;28.18;49.51;96588.56;2599673;36;20538;-75
2021/08/15 08:32:28;;;;;;;12.93;7.60;;;;;;;28.39;51.53;96592.75;2599606;54;20446;-75
2021/08/15 08:34:58;;;;;;;12.00;7.80;;;;;;;26.98;54.93;96589.81;2595119;36;20426;-74
2021/08/15 08:37:28;;;;;;;12.47;8.57;;;;;;;26.71;56.86;96597.06;2596496;54;20410;-75
2021/08/15 08:40:00;;;;;;;20.17;8.00;;;;;;;28.35;51.72;96583.47;2598391;31;21084;-75
2021/08/15 08:42:31;;;;;;;14.20;7.90;;;;;;;28.32;48.27;96578.50;2598729;54;20498;-75
2021/08/15 08:45:03;;;;;;;11.60;7.80;;;;;;;27.92;49.97;96584.16;2598528;36;21191;-74
2021/08/15 08:47:35;;;;;;;22.80;8.90;;;;;;;27.94;51.26;96579.38;2600826;54;20466;-75
2021/08/15 08:50:07;;;;;;;17.40;7.90;;;;;;;27.14;53.58;96583.16;2602457;36;20453;-75
2021/08/15 08:52:37;;;;;;;14.50;7.70;;;;;;;27.54;51.58;96572.31;2600459;54;20550;-76
2021/08/15 08:55:09;;;;;;;20.63;8.83;;;;;;;28.07;50.66;96568.56;2597569;36;20914;-73
2021/08/15 08:57:39;;;;;;;12.60;8.77;;;;;;;28.18;51.55;96567.84;2598134;54;20543;-75
2021/08/15 09:00:10;;;;;;;14.97;7.97;;;;;;;27.92;50.17;96565.34;2596294;36;20446;-75
2021/08/15 09:02:43;;;;;;;11.30;6.90;;;;;;;28.41;47.57;96569.13;2599902;39;20754;-75
2021/08/15 09:05:14;;;;;;;15.00;6.97;;;;;;;27.66;48.81;96563.56;2595981;36;20934;-75
2021/08/15 09:07:45;;;;;;;11.50;8.03;;;;;;;27.26;49.70;96553.78;2597400;54;20407;-76
2021/08/15 09:10:16;;;;;;;15.10;8.87;;;;;;;27.70;49.84;96549.50;2597398;36;21001;-76
2021/08/15 09:12:48;;;;;;;12.80;7.93;;;;;;;28.05;48.20;96551.81;2597604;54;20985;-76
2021/08/15 09:15:22;;;;;;;12.43;8.73;;;;;;;28.32;48.07;96551.59;2596337;36;20929;-75
2021/08/15 09:17:55;;;;;;;11.30;7.57;;;;;;;28.06;50.71;96548.06;2596037;54;20510;-75
2021/08/15 09:20:27;;;;;;;9.87;7.23;;;;;;;28.20;48.40;96540.72;2595415;36;20454;-75
2021/08/15 09:22:57;;;;;;;13.87;8.83;;;;;;;27.00;51.77;96541.25;2595898;54;20422;-75
2021/08/15 09:25:27;;;;;;;13.13;8.13;;;;;;;27.92;50.36;96547.31;2596761;36;20502;-75
2021/08/15 09:27:59;;;;;;;9.10;8.03;;;;;;;28.94;48.28;96544.44;2596471;54;21000;-75
2021/08/15 09:30:30;;;;;;;12.27;6.80;;;;;;;29.14;47.22;96536.16;2595440;36;20442;-75
2021/08/15 09:33:09;;;;;;;13.40;7.60;;;;;;;28.57;50.10;96528.22;2596447;39;20793;-75
2021/08/15 09:35:41;;;;;;;10.80;7.20;;;;;;;30.48;45.49;96524.41;2597977;36;20410;-76
2021/08/15 09:38:13;;;;;;;12.47;7.47;;;;;;;31.24;43.21;96524.47;2597755;36;20996;-75
2021/08/15 09:40:45;;;;;;;9.70;8.10;;;;;;;31.97;41.60;96511.31;2598088;54;20427;-75
2021/08/15 09:43:21;;;;;;;12.23;7.70;;;;;;;31.07;43.30;96515.44;2599634;36;20951;-76
2021/08/15 09:45:53;;;;;;;13.20;7.33;;;;;;;28.77;46.95;96527.19;2596596;54;20402;-75
2021/08/15 09:48:35;;;;;;;16.47;7.80;;;;;;;30.05;45.74;96533.56;2595406;36;20928;-75
2021/08/15 09:51:08;;;;;;;10.97;7.87;;;;;;;29.51;45.26;96529.94;2597183;54;20441;-75
2021/08/15 09:53:43;;;;;;;13.47;7.60;;;;;;;30.26;44.00;96525.97;2597270;36;20430;-75
2021/08/15 09:56:14;;;;;;;12.33;8.60;;;;;;;29.06;47.47;96533.72;2595381;47;20799;-75
2021/08/15 09:58:44;;;;;;;16.33;9.17;;;;;;;29.70;45.40;96520.75;2595538;36;20907;-76
2021/08/15 10:01:14;;;;;;;17.03;8.37;;;;;;;31.60;42.88;96511.72;2598333;39;20979;-76
2021/08/15 10:03:47;;;;;;;13.40;8.33;;;;;;;31.11;42.32;96513.94;2597091;31;20435;-75
2021/08/15 10:06:17;;;;;;;8.97;7.00;;;;;;;31.20;43.40;96514.38;2597506;54;20948;-76
2021/08/15 10:08:48;;;;;;;16.40;7.97;;;;;;;32.50;40.10;96510.03;2597169;36;20750;-76
2021/08/15 10:11:18;;;;;;;11.70;7.73;;;;;;;31.77;41.15;96506.31;2599320;39;20744;-76
2021/08/15 10:13:47;;;;;;;19.23;8.27;;;;;;;30.04;44.85;96515.72;2598637;36;20415;-76
2021/08/15 10:16:19;;;;;;;20.40;9.17;;;;;;;29.52;46.53;96509.97;2598582;54;20455;-76
2021/08/15 10:18:57;;;;;;;14.90;7.90;;;;;;;30.51;45.27;96506.91;2597035;36;20924;-74
2021/08/15 10:21:28;;;;;;;10.33;7.97;;;;;;;29.38;46.49;96512.03;2596606;39;21255;-76
2021/08/15 10:24:09;;;;;;;14.43;9.27;;;;;;;28.92;47.91;96503.41;2598093;36;20443;-76
2021/08/15 10:26:43;;;;;;;16.10;8.73;;;;;;;28.37;49.52;96500.63;2596760;39;21164;-76
2021/08/15 10:29:43;;;;;;;11.27;8.30;;;;;;;29.30;47.10;96499.66;2596647;36;20426;-76
2021/08/15 10:32:18;;;;;;;11.20;7.80;;;;;;;29.50;47.91;96494.03;2599260;54;20431;-75
2021/08/15 10:35:18;;;;;;;14.77;8.80;;;;;;;29.72;47.26;96486.28;2599645;36;20883;-75
2021/08/15 10:37:51;;;;;;;14.70;7.73;;;;;;;31.59;41.84;96476.78;2595487;54;20397;-75
2021/08/15 10:41:00;;;;;;;19.40;8.70;;;;;;;30.76;44.41;96482.34;2598325;36;20918;-76
2021/08/15 10:43:59;;;;;;;15.57;8.37;;;;;;;29.84;45.74;96504.41;2596041;36;20399;-76
2021/08/15 10:46:30;;;;;;;14.97;7.97;;;;;;;28.91;48.08;96517.94;2595666;54;20391;-75
2021/08/15 10:49:02;;;;;;;18.87;8.10;;;;;;;28.51;49.81;96506.72;2596481;36;20422;-76
2021/08/15 10:51:46;;;;;;;18.70;8.90;;;;;;;27.75;51.91;96501.22;2597899;39;20813;-76
2021/08/15 10:54:46;;;;;;;15.30;7.57;;;;;;;27.59;52.72;96499.06;2597270;36;20742;-73
2021/08/15 10:57:37;;;;;;;14.57;8.95;;;;;;;28.45;59.84;96505.72;2598192;54;20511;-74
2021/08/15 11:00:56;;;;;;;24.13;9.60;;;;;;;28.28;61.85;96491.16;2610191;36;20197;-74
2021/08/15 11:03:56;;;;;;;22.57;11.27;;;;;;;28.25;64.76;96488.94;2599219;36;20487;-74
2021/08/15 11:06:46;;;;;;;15.17;9.80;;;;;;;28.54;64.17;96488.28;2597434;54;20423;-75
2021/08/15 11:09:17;;;;;;;23.00;10.27;;;;;;;27.72;67.00;96482.84;2598411;36;20587;-72
2021/08/15 11:12:12;;;;;;;17.07;10.93;;;;;;;27.32;67.64;96464.25;2600439;39;20771;-72
2021/08/15 11:15:06;;;;;;;18.50;11.40;;;;;;;27.00;69.85;96460.66;2599819;36;20553;-74
2021/08/15 11:17:41;;;;;;;18.20;10.47;;;;;;;26.59;69.96;96461.78;2600638;54;21004;-75
2021/08/15 11:20:33;;;;;;;15.30;9.77;;;;;;;26.48;70.13;96454.34;2597783;36;21533;-72
2021/08/15 11:23:16;;;;;;;18.93;10.53;;;;;;;26.07;71.25;96450.06;2603229;39;20497;-73
2021/08/15 11:25:47;;;;;;;18.33;10.77;;;;;;;26.06;71.79;96459.97;2565300;54;2003979;-73
2021/08/15 11:28:18;;;;;;;16.70;10.90;;;;;;;25.60;71.03;96452.66;2597321;36;21301;-74
2021/08/15 11:30:56;;;;;;;18.37;11.17;;;;;;;25.47;73.64;96456.16;2596536;54;21000;-73
2021/08/15 11:33:31;;;;;;;17.97;11.23;;;;;;;24.73;75.12;96459.56;2598588;36;20549;-74
2021/08/15 11:36:02;;;;;;;18.87;12.00;;;;;;;24.95;74.25;96461.13;2596402;54;21235;-73
2021/08/15 11:38:36;;;;;;;21.80;11.70;;;;;;;24.57;76.69;96460.72;2595910;36;20922;-73
2021/08/15 11:41:06;;;;;;;18.20;12.63;;;;;;;23.84;78.18;96463.66;2601380;54;20462;-73
2021/08/15 11:43:41;;;;;;;19.63;13.57;;;;;;;23.37;81.32;96465.81;2596776;36;20637;-73
2021/08/15 11:46:11;;;;;;;23.90;14.50;;;;;;;24.02;78.58;96458.66;2595547;54;20958;-73